ENGLEBRIGHT (USACE) (ENG)

Elevation: 551' · YUBA R basin · Operator: US Army Corps of Engineers

Provisional data, subject to change.
Query executed Friday at 17:14:28   clock

Select a sensor type for a plot of data.
Note: Reservoir Flows are daily averages.

Earlier

Date RES ELE    STORAGE    RES CHG    OUTFLOW    INFLOW    PPT INC   
 FEET   AF   AF   CFS   CFS   INCHES  
11/20/2014 522.64 66477 438 -- 998 0.12
11/21/2014 522.70 66524 -- -- 24 0.00
11/22/2014 523.01 66767 -- -- 880 0.45
11/23/2014 523.18 66901 -- -- 815 0.00
11/24/2014 523.82 67406 505 -- 986 0.00
11/25/2014 523.68 67296 -110 -- 661 0.00
11/26/2014 522.13 66078 -1218 -- -614 0.00
11/27/2014 520.50 64816 -1262 -- 92 0.00
11/28/2014 518.81 63527 -1289 -- -650 0.01
11/29/2014 519.23 63846 319 -- 161 1.09
11/30/2014 519.69 64196 350 -- 885 0.34
12/01/2014 520.37 64716 520 -- 976 0.05
12/02/2014 520.09 64502 -214 -- 609 0.82
12/03/2014 522.36 66258 1756 -- 1608 2.40
12/04/2014 524.55 67987 1729 -- 2707 0.15
12/05/2014 520.13 64532 -3455 -- 654 0.21
12/06/2014 518.59 63361 -1171 -- 617 0.51
12/07/2014 518.14 63022 -339 -- 548 0.00
12/08/2014 517.22 62333 -689 -- 365 0.00
12/09/2014 517.47 62519 186 -- 923 0.00
12/10/2014 517.20 62318 -201 -- 820 0.03
12/11/2014 519.51 64059 1741 -- 1804 2.80
12/12/2014 524.61 68035 3976 -- 3829 0.68
12/13/2014 520.61 64901 -3134 -- 1066 0.07
12/14/2014 518.52 63308 -1593 -- 686 0.00
12/15/2014 517.75 62729 -579 -- 639 0.61
12/16/2014 518.76 63489 760 -- 1296 0.55
12/17/2014 520.54 64847 1358 -- 1752 0.14
12/18/2014 521.72 65759 912 -- 1790 0.00
12/19/2014 -- -- -- -- -- --

Later | Latest

Warning! This data is preliminary and subject to revision.

Show ENG Map | Plot ENG Data | 1 Month ENG Data | Real-Time ENG Data | ENG Info